Time;durP1;ratioP1;P1;durP2;ratioP2;P2;SDS_P1;SDS_P2;PMS_P1;PMS_P2;Temp;Humidity;BMP_temperature;BMP_pressure;BME280_temperature;BME280_humidity;BME280_pressure;Samples;Min_cycle;Max_cycle;Signal;HPM_P1;HPM_P2
2023/12/28 00:01:50;;;;;;;;;;;27.30;97.20;;;;;;4953561;29;20291;-65
2023/12/28 00:04:17;;;;;;;;;;;27.40;97.00;;;;;;4953824;29;19914;-67
2023/12/28 00:06:44;;;;;;;;;;;27.50;97.40;;;;;;4953690;29;19918;-65
2023/12/28 00:09:10;;;;;;;;;;;27.70;97.30;;;;;;4953674;29;19910;-65
2023/12/28 00:11:37;;;;;;;;;;;28.00;97.50;;;;;;4953446;29;19911;-66
2023/12/28 00:14:04;;;;;;;;;;;28.20;96.50;;;;;;4953558;28;19917;-70
2023/12/28 00:16:32;;;;;;;;;;;28.30;96.40;;;;;;4953495;29;19911;-68
2023/12/28 00:18:59;;;;;;;;;;;28.50;95.70;;;;;;4953252;28;19965;-68
2023/12/28 00:21:26;;;;;;;;;;;28.50;95.60;;;;;;4953244;29;20005;-66
2023/12/28 00:23:53;;;;;;;;;;;28.60;96.10;;;;;;4951944;29;20016;-65
2023/12/28 00:26:21;;;;;;;;;;;28.60;94.80;;;;;;4953199;28;19917;-67
2023/12/28 00:28:48;;;;;;;;;;;28.70;94.80;;;;;;4953074;28;19936;-65
2023/12/28 00:31:15;;;;;;;;;;;28.70;95.20;;;;;;4952917;28;19910;-65
2023/12/28 00:33:41;;;;;;;;;;;28.70;95.40;;;;;;4951771;28;19954;-65
2023/12/28 00:36:08;;;;;;;;;;;28.90;96.40;;;;;;4952887;28;20260;-64
2023/12/28 00:38:35;;;;;;;;;;;28.90;95.80;;;;;;4952830;28;19963;-65
2023/12/28 00:41:01;;;;;;;;;;;28.90;95.70;;;;;;4952803;28;19915;-68
2023/12/28 00:43:28;;;;;;;;;;;29.00;95.60;;;;;;4952810;28;19968;-69
2023/12/28 00:45:54;;;;;;;;;;;29.10;94.40;;;;;;4952784;29;19910;-68
2023/12/28 00:48:21;;;;;;;;;;;29.10;94.70;;;;;;4952901;28;19911;-68
2023/12/28 00:50:48;;;;;;;;;;;29.30;95.20;;;;;;4952696;28;20282;-68
2023/12/28 00:53:15;;;;;;;;;;;29.40;93.70;;;;;;4952726;28;20357;-68
2023/12/28 00:55:50;;;;;;;;;;;29.40;93.70;;;;;;5110735;27;20398;-64
2023/12/28 00:58:17;;;;;;;;;;;29.40;93.20;;;;;;5110590;28;20300;-67
2023/12/28 01:00:43;;;;;;;;;;;29.50;93.10;;;;;;5110680;28;19908;-65
2023/12/28 01:03:10;;;;;;;;;;;29.60;93.50;;;;;;5110609;28;19908;-65
2023/12/28 01:05:36;;;;;;;;;;;29.80;93.70;;;;;;5110555;28;19904;-68
2023/12/28 01:08:04;;;;;;;;;;;29.90;94.10;;;;;;5110504;28;19908;-67
2023/12/28 01:10:30;;;;;;;;;;;30.00;93.80;;;;;;5110614;28;19912;-63
2023/12/28 01:12:57;;;;;;;;;;;30.20;94.00;;;;;;5110328;28;19909;-65
2023/12/28 01:15:23;;;;;;;;;;;30.30;93.50;;;;;;5110318;28;19999;-66
2023/12/28 01:17:50;;;;;;;;;;;30.40;93.20;;;;;;5110349;28;20368;-64
2023/12/28 01:20:17;;;;;;;;;;;30.30;93.10;;;;;;5110310;28;20008;-70
2023/12/28 01:22:43;;;;;;;;;;;30.40;93.10;;;;;;5110283;28;19954;-65
2023/12/28 01:25:10;;;;;;;;;;;30.50;93.10;;;;;;5110184;28;19909;-65
2023/12/28 01:27:36;;;;;;;;;;;30.40;92.90;;;;;;5110077;28;19953;-67
2023/12/28 01:30:03;;;;;;;;;;;30.40;93.10;;;;;;5109926;28;19939;-69
2023/12/28 01:32:30;;;;;;;;;;;30.50;93.10;;;;;;5110031;28;20438;-71
2023/12/28 01:34:56;;;;;;;;;;;30.50;92.80;;;;;;5110086;28;19951;-66
2023/12/28 01:37:23;;;;;;;;;;;30.60;93.30;;;;;;5110120;28;19986;-68
2023/12/28 01:39:50;;;;;;;;;;;30.80;92.80;;;;;;5110013;28;19999;-67
2023/12/28 01:42:17;;;;;;;;;;;30.70;92.70;;;;;;5109727;28;19961;-66
2023/12/28 01:44:43;;;;;;;;;;;30.60;93.00;;;;;;5109696;28;20357;-64
2023/12/28 01:47:10;;;;;;;;;;;30.60;93.00;;;;;;5109798;28;20277;-65
2023/12/28 01:49:37;;;;;;;;;;;30.70;93.00;;;;;;5109671;28;19912;-67
2023/12/28 01:52:04;;;;;;;;;;;30.90;93.20;;;;;;5109867;28;19908;-71
2023/12/28 01:54:40;;;;;;;;;;;30.90;93.90;;;;;;5119594;28;19923;-65
2023/12/28 01:57:07;;;;;;;;;;;31.20;93.30;;;;;;5111147;28;20275;-65
2023/12/28 01:59:34;;;;;;;;;;;31.40;92.60;;;;;;5130139;28;20276;-69
2023/12/28 02:02:01;;;;;;;;;;;31.60;91.90;;;;;;5130085;28;20009;-68
2023/12/28 02:04:28;;;;;;;;;;;31.90;94.00;;;;;;5130058;28;20006;-65
2023/12/28 02:06:59;;;;;;;;;;;32.00;91.70;;;;;;5117727;28;19915;-65
2023/12/28 02:09:26;;;;;;;;;;;32.20;92.60;;;;;;5115823;28;19960;-71
2023/12/28 02:11:54;;;;;;;;;;;32.40;92.90;;;;;;5116032;28;19912;-65
2023/12/28 02:14:22;;;;;;;;;;;32.40;91.70;;;;;;5116089;28;19916;-67
2023/12/28 02:16:59;;;;;;;;;;;32.10;91.70;;;;;;5116062;28;20258;-70
2023/12/28 02:19:32;;;;;;;;;;;31.90;92.50;;;;;;5115791;28;20332;-67
2023/12/28 02:22:00;;;;;;;;;;;32.10;92.90;;;;;;5116051;28;19908;-65
2023/12/28 02:24:26;;;;;;;;;;;32.40;92.40;;;;;;5115852;28;19963;-68
2023/12/28 02:26:55;;;;;;;;;;;32.50;92.30;;;;;;5116205;28;20329;-72
2023/12/28 02:29:22;;;;;;;;;;;32.10;92.00;;;;;;5097938;28;19950;-69
2023/12/28 02:31:59;;;;;;;;;;;31.70;92.30;;;;;;5115652;28;20372;-70
2023/12/28 02:34:34;;;;;;;;;;;31.60;93.30;;;;;;5097681;28;19912;-65
2023/12/28 02:37:02;;;;;;;;;;;31.80;93.40;;;;;;5115867;28;19908;-65
2023/12/28 02:39:30;;;;;;;;;;;31.80;92.40;;;;;;5115651;28;19908;-70
2023/12/28 02:41:58;;;;;;;;;;;31.30;92.80;;;;;;5096708;28;20387;-71
2023/12/28 02:44:25;;;;;;;;;;;30.90;93.60;;;;;;5115633;28;20303;-69
2023/12/28 02:47:00;;;;;;;;;;;31.00;93.90;;;;;;5115337;28;19908;-65
2023/12/28 02:49:30;;;;;;;;;;;31.30;92.80;;;;;;5115252;28;19912;-64
2023/12/28 02:52:00;;;;;;;;;;;31.30;92.80;;;;;;5115254;28;19943;-64
2023/12/28 02:54:31;;;;;;;;;;;31.70;93.10;;;;;;5114971;28;19926;-65
2023/12/28 02:56:58;;;;;;;;;;;32.20;92.00;;;;;;5115217;28;19908;-72
2023/12/28 02:59:25;;;;;;;;;;;32.70;92.60;;;;;;5115272;28;19908;-71
2023/12/28 03:01:51;;;;;;;;;;;33.10;91.70;;;;;;5115142;28;20284;-70
2023/12/28 03:04:18;;;;;;;;;;;32.80;90.60;;;;;;5115037;28;19952;-65
2023/12/28 03:06:48;;;;;;;;;;;32.50;90.90;;;;;;5114828;28;19914;-65
2023/12/28 03:09:15;;;;;;;;;;;32.30;91.10;;;;;;5114976;28;19908;-65
2023/12/28 03:11:43;;;;;;;;;;;32.20;91.90;;;;;;5114937;28;20370;-67
2023/12/28 03:14:11;;;;;;;;;;;32.90;91.40;;;;;;5096965;28;19927;-66
2023/12/28 03:16:38;;;;;;;;;;;33.90;90.70;;;;;;5114709;28;20018;-65
2023/12/28 03:19:05;;;;;;;;;;;34.90;90.30;;;;;;5114115;28;19908;-67
2023/12/28 03:21:32;;;;;;;;;;;35.70;85.50;;;;;;5114624;28;19961;-73
2023/12/28 03:23:58;;;;;;;;;;;36.40;84.60;;;;;;5114917;28;20341;-67
2023/12/28 03:26:25;;;;;;;;;;;37.00;81.00;;;;;;5114805;28;19907;-66
2023/12/28 03:28:52;;;;;;;;;;;37.50;79.90;;;;;;5114380;28;19915;-67
2023/12/28 03:31:18;;;;;;;;;;;37.80;78.60;;;;;;5114638;28;19908;-70
2023/12/28 03:33:45;;;;;;;;;;;38.40;76.40;;;;;;5114553;28;19916;-66
2023/12/28 03:36:21;;;;;;;;;;;38.30;75.80;;;;;;5112543;28;19912;-66
2023/12/28 03:38:48;;;;;;;;;;;38.70;73.70;;;;;;5114472;28;19907;-71
2023/12/28 03:41:20;;;;;;;;;;;38.60;72.90;;;;;;5094982;28;19931;-67
2023/12/28 03:43:51;;;;;;;;;;;39.00;71.30;;;;;;5114325;28;19954;-66
2023/12/28 03:46:18;;;;;;;;;;;38.80;72.50;;;;;;5114355;28;19911;-66
2023/12/28 03:48:44;;;;;;;;;;;38.70;70.30;;;;;;5114070;28;20420;-67
2023/12/28 03:51:20;;;;;;;;;;;38.40;70.00;;;;;;5113792;28;19911;-73
2023/12/28 03:53:47;;;;;;;;;;;38.70;69.10;;;;;;5114003;28;19920;-68
2023/12/28 03:56:23;;;;;;;;;;;38.60;68.50;;;;;;5114245;28;19987;-71
2023/12/28 03:58:50;;;;;;;;;;;38.40;70.50;;;;;;5114079;28;20417;-72
2023/12/28 04:01:26;;;;;;;;;;;38.60;68.50;;;;;;5113800;28;19915;-72
2023/12/28 04:03:52;;;;;;;;;;;39.10;67.40;;;;;;5113834;28;20321;-70
2023/12/28 04:06:19;;;;;;;;;;;39.20;68.00;;;;;;5113750;28;19968;-67
2023/12/28 04:08:46;;;;;;;;;;;39.10;67.00;;;;;;5113700;28;19956;-71
2023/12/28 04:11:13;;;;;;;;;;;38.80;67.00;;;;;;5113769;28;19908;-68
2023/12/28 04:13:39;;;;;;;;;;;38.00;68.40;;;;;;5113916;28;20361;-68
2023/12/28 04:16:06;;;;;;;;;;;38.10;68.00;;;;;;5114043;28;19908;-69
2023/12/28 04:18:33;;;;;;;;;;;37.90;68.40;;;;;;5113634;28;19931;-72
2023/12/28 04:21:00;;;;;;;;;;;38.30;68.90;;;;;;5113662;28;19908;-69
2023/12/28 04:23:26;;;;;;;;;;;38.50;67.80;;;;;;5113681;28;19943;-66
2023/12/28 04:25:53;;;;;;;;;;;37.60;68.50;;;;;;5113633;28;19907;-67
2023/12/28 04:28:20;;;;;;;;;;;37.00;71.40;;;;;;5113189;28;19912;-67
2023/12/28 04:30:46;;;;;;;;;;;36.80;70.40;;;;;;5113433;28;19908;-67
2023/12/28 04:33:13;;;;;;;;;;;37.40;68.80;;;;;;5113388;28;20376;-66
2023/12/28 04:35:40;;;;;;;;;;;37.90;67.70;;;;;;5113348;28;19920;-68
2023/12/28 04:38:08;;;;;;;;;;;38.00;67.50;;;;;;5113569;28;19908;-68
2023/12/28 04:40:35;;;;;;;;;;;38.30;66.80;;;;;;5113428;28;19953;-69
2023/12/28 04:43:02;;;;;;;;;;;39.20;65.30;;;;;;5113439;28;19908;-70
2023/12/28 04:45:29;;;;;;;;;;;39.70;63.50;;;;;;5113265;28;19908;-69
2023/12/28 04:47:55;;;;;;;;;;;39.70;65.70;;;;;;5113280;28;19908;-68
2023/12/28 04:50:22;;;;;;;;;;;39.90;63.70;;;;;;5113215;28;20272;-67
2023/12/28 04:52:48;;;;;;;;;;;40.00;63.50;;;;;;5113187;28;19908;-70
2023/12/28 04:55:15;;;;;;;;;;;40.00;63.00;;;;;;5113137;28;19920;-66
2023/12/28 04:57:42;;;;;;;;;;;40.10;63.40;;;;;;5113195;28;19915;-68
2023/12/28 05:00:09;;;;;;;;;;;40.30;63.60;;;;;;5113347;28;19908;-70
2023/12/28 05:02:35;;;;;;;;;;;40.10;64.20;;;;;;5113047;28;19908;-71
2023/12/28 05:05:02;;;;;;;;;;;39.90;64.70;;;;;;5113400;28;19907;-72
2023/12/28 05:07:28;;;;;;;;;;;39.50;64.60;;;;;;5113068;28;19930;-67
2023/12/28 05:09:55;;;;;;;;;;;39.30;64.60;;;;;;5113132;28;19915;-71
2023/12/28 05:12:22;;;;;;;;;;;39.30;65.50;;;;;;5113144;28;19915;-68
2023/12/28 05:14:48;;;;;;;;;;;39.40;64.80;;;;;;5112965;28;19919;-71
2023/12/28 05:17:15;;;;;;;;;;;39.70;64.30;;;;;;5113189;28;19907;-68
2023/12/28 05:19:41;;;;;;;;;;;39.60;65.80;;;;;;5113316;28;20364;-68
2023/12/28 05:22:10;;;;;;;;;;;38.90;65.80;;;;;;5094592;28;19908;-68
2023/12/28 05:24:37;;;;;;;;;;;39.20;65.80;;;;;;5113157;28;19911;-66
2023/12/28 05:27:04;;;;;;;;;;;39.10;64.60;;;;;;5113395;28;20276;-71
2023/12/28 05:29:30;;;;;;;;;;;38.90;64.30;;;;;;5112791;28;19911;-65
2023/12/28 05:31:57;;;;;;;;;;;38.50;65.90;;;;;;5112934;28;19990;-66
2023/12/28 05:34:23;;;;;;;;;;;38.50;67.20;;;;;;5112816;28;19923;-66
2023/12/28 05:36:50;;;;;;;;;;;38.10;69.20;;;;;;5112865;28;20392;-65
2023/12/28 05:39:17;;;;;;;;;;;38.30;67.00;;;;;;5112862;28;19954;-72
2023/12/28 05:41:47;;;;;;;;;;;38.30;67.60;;;;;;5114921;28;19908;-65
2023/12/28 05:44:14;;;;;;;;;;;37.40;70.20;;;;;;5116906;28;20009;-66
2023/12/28 05:46:41;;;;;;;;;;;37.90;70.60;;;;;;5116750;28;20048;-66
2023/12/28 05:49:07;;;;;;;;;;;36.90;71.90;;;;;;5116523;28;20538;-71
2023/12/28 05:51:39;;;;;;;;;;;36.60;71.70;;;;;;5098096;28;19973;-71
2023/12/28 05:54:06;;;;;;;;;;;36.60;72.30;;;;;;5115828;28;20509;-66
2023/12/28 05:56:33;;;;;;;;;;;36.30;72.40;;;;;;5116176;28;20304;-65
2023/12/28 05:59:00;;;;;;;;;;;35.40;74.40;;;;;;5116344;28;20379;-70
2023/12/28 06:01:27;;;;;;;;;;;34.90;75.70;;;;;;5116300;28;20012;-72
2023/12/28 06:03:54;;;;;;;;;;;33.70;74.90;;;;;;5116200;28;20353;-65
2023/12/28 06:06:21;;;;;;;;;;;33.00;76.90;;;;;;5116322;28;19999;-70
2023/12/28 06:08:47;;;;;;;;;;;32.70;77.60;;;;;;5116224;28;19908;-71
2023/12/28 06:11:14;;;;;;;;;;;32.30;77.40;;;;;;5116184;28;20314;-66
2023/12/28 06:13:41;;;;;;;;;;;31.60;78.30;;;;;;5116187;28;20267;-69
2023/12/28 06:16:07;;;;;;;;;;;31.60;79.10;;;;;;5116108;28;20395;-66
2023/12/28 06:18:34;;;;;;;;;;;31.90;78.40;;;;;;5116152;28;19915;-66
2023/12/28 06:21:00;;;;;;;;;;;32.00;77.90;;;;;;5116056;28;19911;-71
2023/12/28 06:23:27;;;;;;;;;;;31.90;78.10;;;;;;5115941;28;19908;-66
2023/12/28 06:25:54;;;;;;;;;;;31.80;78.20;;;;;;5116058;28;19953;-70
2023/12/28 06:28:21;;;;;;;;;;;31.60;80.80;;;;;;5115617;28;19957;-66
2023/12/28 06:30:47;;;;;;;;;;;31.50;80.90;;;;;;5115977;28;19908;-66
2023/12/28 06:33:16;;;;;;;;;;;31.20;81.00;;;;;;5115807;28;19908;-66
2023/12/28 06:35:42;;;;;;;;;;;31.00;83.20;;;;;;5115501;28;20398;-69
2023/12/28 06:38:09;;;;;;;;;;;31.10;81.40;;;;;;5115333;28;19960;-72
2023/12/28 06:40:35;;;;;;;;;;;31.20;81.50;;;;;;5115517;28;20295;-65
2023/12/28 06:43:02;;;;;;;;;;;31.30;81.60;;;;;;5115410;28;19907;-71
2023/12/28 06:45:29;;;;;;;;;;;31.40;81.40;;;;;;5115370;28;19994;-65
2023/12/28 06:47:55;;;;;;;;;;;31.30;80.70;;;;;;5115257;28;20364;-71
2023/12/28 06:50:22;;;;;;;;;;;31.10;82.10;;;;;;5115553;28;20003;-70
2023/12/28 06:52:49;;;;;;;;;;;31.10;81.50;;;;;;5115249;28;20387;-71
2023/12/28 06:55:15;;;;;;;;;;;30.90;83.70;;;;;;5114986;28;19935;-70
2023/12/28 06:57:42;;;;;;;;;;;31.00;81.50;;;;;;5115283;28;19911;-70
2023/12/28 07:00:09;;;;;;;;;;;31.00;81.50;;;;;;5115264;28;20292;-69
2023/12/28 07:02:36;;;;;;;;;;;31.10;82.70;;;;;;5115167;28;20387;-71
2023/12/28 07:05:03;;;;;;;;;;;30.90;81.90;;;;;;5115003;28;20280;-66
2023/12/28 07:07:30;;;;;;;;;;;30.90;80.30;;;;;;5114869;28;19953;-65
2023/12/28 07:09:57;;;;;;;;;;;30.80;80.40;;;;;;5115271;28;19908;-71
2023/12/28 07:12:24;;;;;;;;;;;30.80;80.90;;;;;;5096744;28;19908;-65
2023/12/28 07:14:51;;;;;;;;;;;30.70;80.30;;;;;;5114709;28;19915;-66
2023/12/28 07:17:17;;;;;;;;;;;30.40;81.20;;;;;;5115122;28;19908;-71
2023/12/28 07:19:44;;;;;;;;;;;30.20;82.80;;;;;;5114938;28;19919;-71
2023/12/28 07:22:11;;;;;;;;;;;30.10;83.00;;;;;;5114842;28;19939;-71
2023/12/28 07:24:37;;;;;;;;;;;29.80;83.20;;;;;;5114832;28;19919;-73
2023/12/28 07:27:04;;;;;;;;;;;29.40;85.30;;;;;;5114980;28;20288;-73
2023/12/28 07:29:31;;;;;;;;;;;29.30;85.40;;;;;;5114499;28;19912;-66
2023/12/28 07:31:57;;;;;;;;;;;29.30;85.80;;;;;;5114650;28;19916;-65
2023/12/28 07:34:24;;;;;;;;;;;29.10;86.90;;;;;;5114805;28;19916;-70
2023/12/28 07:36:50;;;;;;;;;;;29.30;85.90;;;;;;5114801;28;19915;-69
2023/12/28 07:39:17;;;;;;;;;;;29.10;86.20;;;;;;5114592;28;19953;-65
2023/12/28 07:41:44;;;;;;;;;;;28.80;87.40;;;;;;5114192;28;19907;-69
2023/12/28 07:44:10;;;;;;;;;;;28.70;87.60;;;;;;5114491;28;20334;-65
2023/12/28 07:46:37;;;;;;;;;;;28.60;88.20;;;;;;5114248;28;19912;-65
2023/12/28 07:49:03;;;;;;;;;;;28.70;88.10;;;;;;5114302;28;19908;-65
2023/12/28 07:51:30;;;;;;;;;;;28.60;88.40;;;;;;5114304;28;19930;-73
2023/12/28 07:53:57;;;;;;;;;;;28.60;88.90;;;;;;5113845;28;19926;-64
2023/12/28 07:56:24;;;;;;;;;;;28.60;89.40;;;;;;5114082;28;19914;-70
2023/12/28 07:58:50;;;;;;;;;;;28.40;88.60;;;;;;5114048;28;19915;-66
2023/12/28 08:01:17;;;;;;;;;;;28.40;90.00;;;;;;5113872;28;19912;-71
2023/12/28 08:03:44;;;;;;;;;;;28.30;89.50;;;;;;5113468;28;19915;-71
2023/12/28 08:06:12;;;;;;;;;;;28.40;90.10;;;;;;5113955;28;19931;-66
2023/12/28 08:08:39;;;;;;;;;;;28.20;90.20;;;;;;5113967;28;19907;-65
2023/12/28 08:11:06;;;;;;;;;;;28.00;91.20;;;;;;5114108;28;19912;-71
2023/12/28 08:13:33;;;;;;;;;;;27.90;91.40;;;;;;5113967;28;20338;-70
2023/12/28 08:15:59;;;;;;;;;;;27.80;90.80;;;;;;5113712;28;20000;-66
2023/12/28 08:18:26;;;;;;;;;;;27.80;90.90;;;;;;5113726;28;19908;-67
2023/12/28 08:20:52;;;;;;;;;;;27.80;90.90;;;;;;5113752;28;19960;-68
2023/12/28 08:23:19;;;;;;;;;;;27.70;91.00;;;;;;5113696;28;19972;-69
2023/12/28 08:25:46;;;;;;;;;;;27.60;90.80;;;;;;5095502;28;19911;-65
2023/12/28 08:28:13;;;;;;;;;;;27.50;90.50;;;;;;5113609;28;20352;-67
2023/12/28 08:30:39;;;;;;;;;;;27.50;90.90;;;;;;5113681;28;19912;-69
2023/12/28 08:33:06;;;;;;;;;;;27.40;90.80;;;;;;5113344;28;19943;-70
2023/12/28 08:35:33;;;;;;;;;;;27.30;90.80;;;;;;5113518;28;20379;-68
2023/12/28 08:37:59;;;;;;;;;;;27.10;90.80;;;;;;5113705;28;20300;-67
2023/12/28 08:40:26;;;;;;;;;;;27.00;91.40;;;;;;5113747;28;20423;-64
2023/12/28 08:42:52;;;;;;;;;;;26.90;91.50;;;;;;5113266;28;19960;-70
2023/12/28 08:45:19;;;;;;;;;;;26.70;91.60;;;;;;5113475;28;19914;-65
2023/12/28 08:47:46;;;;;;;;;;;26.60;92.20;;;;;;5113338;28;19908;-71
2023/12/28 08:50:12;;;;;;;;;;;26.60;92.50;;;;;;5113332;28;19904;-70
2023/12/28 08:52:39;;;;;;;;;;;26.50;92.40;;;;;;5112946;28;19914;-65
2023/12/28 08:55:05;;;;;;;;;;;26.40;92.60;;;;;;5113056;28;20261;-67
2023/12/28 08:57:33;;;;;;;;;;;26.20;93.00;;;;;;5113220;28;19908;-67
2023/12/28 09:00:03;;;;;;;;;;;26.10;93.40;;;;;;5113251;28;19908;-69
2023/12/28 09:02:29;;;;;;;;;;;26.10;94.10;;;;;;5113152;28;19915;-71
2023/12/28 09:04:58;;;;;;;;;;;26.10;93.90;;;;;;5113262;28;19994;-65
2023/12/28 09:07:25;;;;;;;;;;;26.00;94.30;;;;;;5113042;28;19907;-71
2023/12/28 09:09:51;;;;;;;;;;;25.90;94.40;;;;;;5113108;28;19963;-66
2023/12/28 09:12:18;;;;;;;;;;;25.80;94.90;;;;;;5113115;28;19914;-70
2023/12/28 09:14:45;;;;;;;;;;;25.80;94.80;;;;;;5112888;28;19916;-71
2023/12/28 09:17:11;;;;;;;;;;;25.80;95.00;;;;;;5116264;28;19908;-65
2023/12/28 09:19:38;;;;;;;;;;;25.80;95.40;;;;;;5117214;28;19912;-65
2023/12/28 09:22:05;;;;;;;;;;;25.80;95.60;;;;;;5117032;28;19950;-69
2023/12/28 09:24:31;;;;;;;;;;;25.60;95.80;;;;;;5117236;28;20291;-71
2023/12/28 09:26:58;;;;;;;;;;;25.60;96.10;;;;;;5117069;28;19915;-67
2023/12/28 09:29:25;;;;;;;;;;;25.60;96.40;;;;;;5116761;28;20383;-65
2023/12/28 09:31:51;;;;;;;;;;;25.50;96.60;;;;;;5116800;28;19994;-68
2023/12/28 09:34:18;;;;;;;;;;;25.50;96.70;;;;;;5116959;28;19977;-66
2023/12/28 09:36:45;;;;;;;;;;;25.40;96.90;;;;;;5116929;28;19937;-64
2023/12/28 09:39:11;;;;;;;;;;;25.30;97.00;;;;;;5116892;28;19908;-69
2023/12/28 09:41:40;;;;;;;;;;;25.20;97.30;;;;;;5116817;28;19935;-66
2023/12/28 09:44:12;;;;;;;;;;;25.10;97.80;;;;;;5116717;28;20396;-66
2023/12/28 09:46:42;;;;;;;;;;;25.10;98.10;;;;;;5116721;28;19908;-65
2023/12/28 09:49:09;;;;;;;;;;;25.00;98.30;;;;;;5116764;28;19915;-65
2023/12/28 09:51:36;;;;;;;;;;;24.90;98.50;;;;;;5116487;28;20302;-64
2023/12/28 09:54:04;;;;;;;;;;;24.90;98.80;;;;;;5116381;28;19927;-65
2023/12/28 09:56:32;;;;;;;;;;;24.80;99.10;;;;;;5116422;28;19987;-68
2023/12/28 09:58:59;;;;;;;;;;;24.70;99.50;;;;;;5116485;28;20010;-65
2023/12/28 10:01:26;;;;;;;;;;;24.60;99.90;;;;;;5116252;28;19912;-68
2023/12/28 10:03:53;;;;;;;;;;;24.50;99.90;;;;;;5116439;28;19947;-65
2023/12/28 10:06:21;;;;;;;;;;;24.60;99.90;;;;;;5116263;28;19954;-67
2023/12/28 10:08:48;;;;;;;;;;;24.60;99.90;;;;;;5116136;28;20269;-70
2023/12/28 10:11:18;;;;;;;;;;;24.50;99.90;;;;;;5116215;28;19955;-65
2023/12/28 10:13:45;;;;;;;;;;;24.50;99.90;;;;;;5116217;28;19915;-64
2023/12/28 10:16:12;;;;;;;;;;;24.50;99.90;;;;;;5116142;28;19908;-64
2023/12/28 10:18:45;;;;;;;;;;;24.50;99.90;;;;;;5116047;28;19984;-65
2023/12/28 10:21:12;;;;;;;;;;;24.50;99.90;;;;;;5115744;28;19908;-68
2023/12/28 10:23:39;;;;;;;;;;;24.40;99.90;;;;;;5116010;28;19908;-66
2023/12/28 10:26:06;;;;;;;;;;;24.40;99.90;;;;;;5115863;28;19914;-70
2023/12/28 10:28:33;;;;;;;;;;;24.40;99.90;;;;;;5115917;28;19915;-69
2023/12/28 10:30:59;;;;;;;;;;;24.40;99.90;;;;;;5115708;28;20257;-70
2023/12/28 10:33:26;;;;;;;;;;;24.40;99.90;;;;;;5115870;28;19912;-65
2023/12/28 10:35:54;;;;;;;;;;;24.40;99.90;;;;;;5115729;28;20407;-65
2023/12/28 10:38:20;;;;;;;;;;;24.30;99.90;;;;;;5115520;28;19912;-68
2023/12/28 10:40:50;;;;;;;;;;;24.40;99.90;;;;;;5115770;28;20417;-71
2023/12/28 10:43:17;;;;;;;;;;;24.30;99.90;;;;;;5115693;28;20269;-66
2023/12/28 10:45:47;;;;;;;;;;;24.40;99.90;;;;;;5115445;28;19947;-67
2023/12/28 10:48:14;;;;;;;;;;;24.30;99.90;;;;;;5115279;28;19961;-68
2023/12/28 10:50:50;;;;;;;;;;;24.30;99.90;;;;;;5115511;28;19967;-69
2023/12/28 10:53:19;;;;;;;;;;;24.30;99.90;;;;;;5115527;28;20428;-69
2023/12/28 10:55:54;;;;;;;;;;;24.30;99.90;;;;;;5115107;28;20368;-66
2023/12/28 10:58:43;;;;;;;;;;;24.20;99.90;;;;;;5115179;28;19999;-66
2023/12/28 11:01:12;;;;;;;;;;;24.20;99.90;;;;;;5115024;28;19915;-69
2023/12/28 11:03:41;;;;;;;;;;;24.20;99.90;;;;;;5115298;28;19943;-65
2023/12/28 11:06:08;;;;;;;;;;;24.20;99.90;;;;;;5115183;28;19908;-67
2023/12/28 11:08:36;;;;;;;;;;;24.20;99.90;;;;;;5115223;28;19977;-64
2023/12/28 11:11:05;;;;;;;;;;;24.00;99.90;;;;;;5114763;28;19908;-71
2023/12/28 11:13:32;;;;;;;;;;;24.00;99.90;;;;;;5114812;28;20507;-70
2023/12/28 11:16:00;;;;;;;;;;;24.00;99.90;;;;;;5114740;28;19983;-70
2023/12/28 11:18:28;;;;;;;;;;;24.00;99.90;;;;;;5114844;28;19932;-68
2023/12/28 11:20:55;;;;;;;;;;;23.90;99.90;;;;;;5114481;28;19908;-68
2023/12/28 11:23:22;;;;;;;;;;;24.00;99.90;;;;;;5114685;28;19949;-71
2023/12/28 11:25:48;;;;;;;;;;;23.90;99.90;;;;;;5114664;28;19915;-69
2023/12/28 11:28:15;;;;;;;;;;;23.90;99.90;;;;;;5114698;28;19919;-70
2023/12/28 11:30:45;;;;;;;;;;;23.80;99.90;;;;;;5114538;28;19915;-68
2023/12/28 11:33:11;;;;;;;;;;;23.80;99.90;;;;;;5114573;28;19972;-68
2023/12/28 11:35:41;;;;;;;;;;;23.80;99.90;;;;;;5114596;28;19980;-67
2023/12/28 11:38:09;;;;;;;;;;;23.80;99.90;;;;;;5113992;28;19907;-67
2023/12/28 11:40:42;;;;;;;;;;;23.70;99.90;;;;;;5114206;28;19919;-66
2023/12/28 11:43:19;;;;;;;;;;;23.70;99.90;;;;;;5114264;28;20003;-70
2023/12/28 11:45:50;;;;;;;;;;;23.70;99.90;;;;;;5114277;28;20383;-68
2023/12/28 11:48:26;;;;;;;;;;;23.70;99.90;;;;;;5114104;28;19931;-71
2023/12/28 11:50:57;;;;;;;;;;;23.70;99.90;;;;;;5113889;28;19907;-65
2023/12/28 11:53:24;;;;;;;;;;;23.70;99.90;;;;;;5114100;28;20413;-65
2023/12/28 11:55:51;;;;;;;;;;;23.70;99.90;;;;;;5114158;28;19916;-65
2023/12/28 11:58:20;;;;;;;;;;;23.70;99.90;;;;;;5113988;28;19908;-70
2023/12/28 12:00:47;;;;;;;;;;;23.60;99.90;;;;;;5114272;28;20481;-64
2023/12/28 12:03:14;;;;;;;;;;;23.60;99.90;;;;;;5114014;28;19907;-69
2023/12/28 12:05:41;;;;;;;;;;;23.60;99.90;;;;;;5113883;28;19947;-68
2023/12/28 12:08:10;;;;;;;;;;;23.60;99.90;;;;;;5113788;28;19904;-65
2023/12/28 12:10:37;;;;;;;;;;;23.50;99.90;;;;;;5114113;28;20296;-68
2023/12/28 12:13:04;;;;;;;;;;;23.60;99.90;;;;;;5113759;28;20006;-69
2023/12/28 12:15:31;;;;;;;;;;;23.50;99.90;;;;;;5095441;28;19915;-71
2023/12/28 12:17:57;;;;;;;;;;;23.50;99.90;;;;;;5113863;28;20365;-70
2023/12/28 12:20:24;;;;;;;;;;;23.40;99.90;;;;;;5113900;28;19908;-65
2023/12/28 12:22:52;;;;;;;;;;;23.50;99.90;;;;;;5113853;28;19912;-65
2023/12/28 12:25:19;;;;;;;;;;;23.40;99.90;;;;;;5113785;28;20377;-65
2023/12/28 12:27:46;;;;;;;;;;;23.40;99.90;;;;;;5113668;28;20375;-67
2023/12/28 12:30:13;;;;;;;;;;;23.40;99.90;;;;;;5114058;28;19915;-65
2023/12/28 12:32:42;;;;;;;;;;;23.30;99.90;;;;;;5113516;28;20007;-66
2023/12/28 12:35:14;;;;;;;;;;;23.30;99.90;;;;;;5113495;28;19922;-65
2023/12/28 12:37:41;;;;;;;;;;;23.30;99.90;;;;;;5113544;28;19912;-64
2023/12/28 12:40:08;;;;;;;;;;;23.40;99.90;;;;;;5113329;28;19908;-66
2023/12/28 12:42:35;;;;;;;;;;;23.30;99.90;;;;;;5113349;28;19946;-67
2023/12/28 12:45:01;;;;;;;;;;;23.20;99.90;;;;;;5113274;28;20008;-65
2023/12/28 12:47:32;;;;;;;;;;;23.20;99.90;;;;;;5113313;28;20368;-66
2023/12/28 12:49:59;;;;;;;;;;;23.30;99.90;;;;;;5113235;28;19961;-66
2023/12/28 12:52:26;;;;;;;;;;;23.20;99.90;;;;;;5113318;28;19953;-65
2023/12/28 12:54:54;;;;;;;;;;;23.20;99.90;;;;;;5112812;28;20261;-69
2023/12/28 12:57:21;;;;;;;;;;;23.10;99.90;;;;;;5113126;28;19915;-68
2023/12/28 12:59:50;;;;;;;;;;;23.10;99.90;;;;;;5113403;28;19908;-65
2023/12/28 13:02:16;;;;;;;;;;;23.10;99.90;;;;;;5113222;28;19914;-67
2023/12/28 13:04:43;;;;;;;;;;;23.00;99.90;;;;;;5113332;28;20037;-66
2023/12/28 13:07:10;;;;;;;;;;;23.00;99.90;;;;;;5113204;28;19931;-66
2023/12/28 13:09:36;;;;;;;;;;;23.00;99.90;;;;;;5113106;28;19915;-66
2023/12/28 13:12:03;;;;;;;;;;;22.90;99.90;;;;;;5113168;28;19908;-65
2023/12/28 13:14:30;;;;;;;;;;;22.90;99.90;;;;;;5113122;28;20279;-67
2023/12/28 13:16:56;;;;;;;;;;;22.90;99.90;;;;;;5113005;28;19908;-66
2023/12/28 13:19:23;;;;;;;;;;;22.80;99.90;;;;;;5112821;28;20269;-64
2023/12/28 13:21:50;;;;;;;;;;;22.80;99.90;;;;;;5113037;28;20364;-68
2023/12/28 13:24:16;;;;;;;;;;;22.80;99.90;;;;;;5113504;28;20257;-67
2023/12/28 13:26:43;;;;;;;;;;;22.80;99.90;;;;;;5112927;28;19908;-68
2023/12/28 13:29:09;;;;;;;;;;;22.70;99.90;;;;;;5113201;28;19908;-65
2023/12/28 13:31:36;;;;;;;;;;;22.80;99.90;;;;;;5113030;28;19934;-66
2023/12/28 13:34:02;;;;;;;;;;;22.70;99.90;;;;;;5113073;28;19908;-66
2023/12/28 13:36:29;;;;;;;;;;;22.70;99.90;;;;;;5112899;28;19941;-65
2023/12/28 13:38:56;;;;;;;;;;;22.60;99.90;;;;;;5112917;28;20328;-65
2023/12/28 13:41:22;;;;;;;;;;;22.60;99.90;;;;;;5112786;28;19915;-69
2023/12/28 13:43:49;;;;;;;;;;;22.60;99.90;;;;;;5113096;28;19908;-65
2023/12/28 13:46:16;;;;;;;;;;;22.60;99.90;;;;;;5112668;28;20030;-65
2023/12/28 13:48:42;;;;;;;;;;;22.50;99.90;;;;;;5112781;28;20422;-65
2023/12/28 13:51:10;;;;;;;;;;;22.50;99.90;;;;;;5112670;28;19919;-65
2023/12/28 13:53:40;;;;;;;;;;;22.50;99.90;;;;;;5112531;28;19908;-66
2023/12/28 13:56:08;;;;;;;;;;;22.50;99.90;;;;;;5112702;28;19920;-67
2023/12/28 13:58:35;;;;;;;;;;;22.40;99.90;;;;;;5112777;28;20193;-65
2023/12/28 14:01:03;;;;;;;;;;;22.40;99.90;;;;;;5112575;28;20463;-66
2023/12/28 14:03:29;;;;;;;;;;;22.40;99.90;;;;;;5115897;28;19908;-66
2023/12/28 14:05:56;;;;;;;;;;;22.30;99.90;;;;;;5116231;28;20048;-71
2023/12/28 14:08:22;;;;;;;;;;;22.40;99.90;;;;;;5116531;28;19908;-65
2023/12/28 14:10:49;;;;;;;;;;;22.40;99.90;;;;;;5116608;28;19914;-65
2023/12/28 14:13:16;;;;;;;;;;;22.30;99.90;;;;;;5116386;28;19908;-65
2023/12/28 14:15:42;;;;;;;;;;;22.30;99.90;;;;;;5116055;28;19916;-69
2023/12/28 14:18:09;;;;;;;;;;;22.30;99.90;;;;;;5116221;28;19908;-65